Time;durP1;ratioP1;P1;durP2;ratioP2;P2;SDS_P1;SDS_P2;PMS_P1;PMS_P2;Temp;Humidity;BMP_temperature;BMP_pressure;BME280_temperature;BME280_humidity;BME280_pressure;Samples;Min_cycle;Max_cycle;Signal;HPM_P1;HPM_P2
2023/01/26 00:02:10;;;;;;;189.25;65.30;;;3.20;99.90;;;;;;5117532;28;20043;-58
2023/01/26 00:04:36;;;;;;;185.60;62.28;;;3.20;99.90;;;;;;5117579;28;20043;-58
2023/01/26 00:07:02;;;;;;;151.15;55.55;;;3.20;99.90;;;;;;5116252;28;20015;-58
2023/01/26 00:09:28;;;;;;;182.63;65.20;;;3.20;99.90;;;;;;5117644;27;20028;-58
2023/01/26 00:11:53;;;;;;;114.35;45.00;;;3.20;99.90;;;;;;5117641;28;20031;-58
2023/01/26 00:14:19;;;;;;;120.70;44.25;;;3.20;99.90;;;;;;5117069;28;20485;-58
2023/01/26 00:16:45;;;;;;;169.60;59.55;;;3.20;99.90;;;;;;5117308;28;20080;-58
2023/01/26 00:19:11;;;;;;;154.60;55.60;;;3.10;99.90;;;;;;5117245;28;20031;-58
2023/01/26 00:21:37;;;;;;;161.43;57.03;;;3.10;99.90;;;;;;5117281;28;20019;-58
2023/01/26 00:24:03;;;;;;;168.70;55.47;;;3.10;99.90;;;;;;5117274;28;20031;-58
2023/01/26 00:26:29;;;;;;;223.02;73.18;;;3.10;99.90;;;;;;5117102;28;20031;-58
2023/01/26 00:28:58;;;;;;;211.73;75.25;;;3.00;99.90;;;;;;5116992;28;20024;-58
2023/01/26 00:31:26;;;;;;;148.02;53.20;;;3.00;99.90;;;;;;5117045;28;20385;-58
2023/01/26 00:33:54;;;;;;;174.27;58.75;;;2.90;99.90;;;;;;5117045;28;20035;-58
2023/01/26 00:36:20;;;;;;;177.68;61.92;;;3.00;99.90;;;;;;5115653;28;20480;-58
2023/01/26 00:38:47;;;;;;;192.40;66.57;;;2.90;99.90;;;;;;5115652;28;20119;-58
2023/01/26 00:44:00;;;;;;;254.50;85.25;;;2.90;99.90;;;;;;5084838;28;20403;-58
2023/01/26 00:46:26;;;;;;;149.63;55.25;;;2.90;99.90;;;;;;5115406;28;20077;-58
2023/01/26 00:48:52;;;;;;;136.23;50.53;;;2.90;99.90;;;;;;5116694;28;20031;-58
2023/01/26 00:51:18;;;;;;;181.43;62.72;;;2.80;99.90;;;;;;5115380;28;20031;-58
2023/01/26 00:53:44;;;;;;;324.75;106.70;;;2.80;99.90;;;;;;5116388;28;20102;-58
2023/01/26 00:56:13;;;;;;;364.83;116.28;;;2.90;99.90;;;;;;5116667;28;20036;-58
2023/01/26 00:58:39;;;;;;;182.85;64.70;;;2.90;99.90;;;;;;5115285;28;20042;-58
2023/01/26 01:01:05;;;;;;;153.50;57.45;;;2.90;99.90;;;;;;5116212;28;20131;-58
2023/01/26 01:03:31;;;;;;;125.88;47.70;;;2.80;99.90;;;;;;5116308;28;20024;-58
2023/01/26 01:05:57;;;;;;;84.95;37.33;;;2.80;99.90;;;;;;5116405;28;20121;-58
2023/01/26 01:08:23;;;;;;;87.03;38.00;;;2.80;99.90;;;;;;5114865;28;20072;-58
2023/01/26 01:10:49;;;;;;;84.60;36.53;;;2.80;99.90;;;;;;5115062;28;20464;-58
2023/01/26 01:13:15;;;;;;;116.35;47.65;;;2.80;99.90;;;;;;5114894;28;20389;-58
2023/01/26 01:15:40;;;;;;;116.45;48.80;;;2.80;99.90;;;;;;5116255;28;20126;-58
2023/01/26 01:18:06;;;;;;;104.30;44.90;;;2.70;99.90;;;;;;5115755;28;20106;-58
2023/01/26 01:20:32;;;;;;;58.88;30.95;;;2.80;99.90;;;;;;5116044;28;20072;-58
2023/01/26 01:22:58;;;;;;;66.78;32.97;;;2.80;99.90;;;;;;5115897;28;20461;-58
2023/01/26 01:25:26;;;;;;;78.68;36.10;;;2.80;99.90;;;;;;5114753;28;20027;-58
2023/01/26 01:27:52;;;;;;;85.00;38.00;;;2.80;99.90;;;;;;5115961;28;20028;-58
2023/01/26 01:30:18;;;;;;;107.07;46.35;;;2.90;99.90;;;;;;5116013;28;20026;-58
2023/01/26 01:32:48;;;;;;;127.72;52.72;;;2.90;99.90;;;;;;5115835;28;20031;-58
2023/01/26 01:35:14;;;;;;;67.50;33.08;;;2.90;99.90;;;;;;5114531;28;20019;-58
2023/01/26 01:37:41;;;;;;;88.65;37.75;;;2.70;99.90;;;;;;5114537;28;20142;-58
2023/01/26 01:40:11;;;;;;;95.00;40.63;;;2.70;99.90;;;;;;5115726;28;20051;-58
2023/01/26 01:42:37;;;;;;;79.27;37.10;;;2.70;99.90;;;;;;5115825;28;20080;-58
2023/01/26 01:45:25;;;;;;;78.68;35.08;;;2.70;99.90;;;;;;5115600;28;20267;-58
2023/01/26 01:47:56;;;;;;;56.60;29.52;;;2.70;99.90;;;;;;5114441;28;20067;-58
2023/01/26 01:50:24;;;;;;;52.97;29.08;;;2.60;99.90;;;;;;5115581;28;20380;-58
2023/01/26 01:52:53;;;;;;;112.07;43.20;;;2.60;99.90;;;;;;5114298;28;20027;-58
2023/01/26 01:55:19;;;;;;;80.57;36.55;;;2.70;99.90;;;;;;5114144;28;20060;-58
2023/01/26 01:57:59;;;;;;;105.63;43.20;;;2.70;99.90;;;;;;5114183;28;20035;-58
2023/01/26 02:00:26;;;;;;;65.30;32.17;;;2.80;99.90;;;;;;5115114;28;20373;-58
2023/01/26 02:03:18;;;;;;;86.55;38.33;;;2.70;99.90;;;;;;5114042;28;20031;-58
2023/01/26 02:06:02;;;;;;;86.30;35.63;;;2.80;99.90;;;;;;5114106;28;20032;-58
2023/01/26 02:08:45;;;;;;;53.65;29.50;;;2.80;99.90;;;;;;5115362;28;20039;-58
2023/01/26 02:11:26;;;;;;;56.90;28.88;;;2.70;99.90;;;;;;5115218;28;20071;-58
2023/01/26 02:13:55;;;;;;;77.83;33.70;;;2.60;99.90;;;;;;5114044;28;20046;-58
2023/01/26 02:16:21;;;;;;;82.55;36.47;;;2.60;99.90;;;;;;5114039;28;20263;-58
2023/01/26 02:18:47;;;;;;;79.80;38.33;;;2.70;99.90;;;;;;5113831;28;20419;-58
2023/01/26 02:21:17;;;;;;;114.30;45.67;;;2.80;99.90;;;;;;5113790;28;20026;-58
2023/01/26 02:23:58;;;;;;;104.70;43.58;;;2.70;99.90;;;;;;5113875;28;20055;-58
2023/01/26 02:26:30;;;;;;;80.53;35.63;;;2.80;99.90;;;;;;5113741;28;20108;-58
2023/01/26 02:28:57;;;;;;;66.80;31.73;;;2.80;99.90;;;;;;5112957;28;20035;-58
2023/01/26 02:31:25;;;;;;;60.70;32.00;;;2.80;99.90;;;;;;5113869;28;20087;-58
2023/01/26 02:33:52;;;;;;;70.20;31.92;;;2.80;99.90;;;;;;5113544;28;20035;-58
2023/01/26 02:36:26;;;;;;;68.25;33.70;;;2.90;99.90;;;;;;5113847;28;20050;-58
2023/01/26 02:38:58;;;;;;;76.15;35.88;;;2.80;99.90;;;;;;5113718;28;20451;-58
2023/01/26 02:44:11;;;;;;;81.57;37.15;;;2.80;99.90;;;;;;5114981;28;20031;-58
2023/01/26 02:46:37;;;;;;;96.18;42.60;;;2.80;99.90;;;;;;5115018;28;20031;-58
2023/01/26 02:51:48;;;;;;;73.95;35.67;;;2.80;99.90;;;;;;5113603;28;20036;-58
2023/01/26 02:55:21;;;;;;;55.50;28.80;;;2.80;99.90;;;;;;5113473;28;20126;-58
2023/01/26 02:57:01;;;;;;;106.90;42.33;;;2.60;99.90;;;;;;5113468;28;20076;-58
2023/01/26 02:59:27;;;;;;;73.38;34.03;;;2.60;99.90;;;;;;5113499;28;20054;-58
2023/01/26 03:01:55;;;;;;;73.35;34.30;;;2.70;99.90;;;;;;5114897;28;20048;-58
2023/01/26 03:04:21;;;;;;;76.13;36.13;;;2.70;99.90;;;;;;5114740;28;20434;-58
2023/01/26 03:06:47;;;;;;;83.40;36.83;;;2.70;99.90;;;;;;5114761;28;20035;-58
2023/01/26 03:09:13;;;;;;;73.18;33.20;;;2.70;99.90;;;;;;5114849;28;20035;-58
2023/01/26 03:11:43;;;;;;;69.25;33.50;;;2.70;99.90;;;;;;5114662;28;20055;-58
2023/01/26 03:14:10;;;;;;;87.47;38.65;;;2.70;99.90;;;;;;5114730;28;20429;-58
2023/01/26 03:16:37;;;;;;;74.70;35.75;;;2.70;99.90;;;;;;5114586;28;20024;-58
2023/01/26 03:27:26;;;;;;;71.13;35.78;;;2.60;99.90;;;;;;5113253;28;20559;-58
2023/01/26 03:29:56;;;;;;;65.70;31.55;;;2.60;99.90;;;;;;5113076;28;20438;-58
2023/01/26 03:32:24;;;;;;;73.88;33.95;;;2.60;99.90;;;;;;5113274;28;20455;-58
2023/01/26 03:34:51;;;;;;;70.90;33.15;;;2.60;99.90;;;;;;5113143;28;20042;-58
2023/01/26 03:37:21;;;;;;;79.60;37.28;;;2.50;99.90;;;;;;5113227;28;20503;-58
2023/01/26 03:56:39;;;;;;;96.38;41.03;;;2.40;99.90;;;;;;5116419;28;20114;-58
2023/01/26 03:59:14;;;;;;;88.68;39.08;;;2.40;99.90;;;;;;5116379;28;20034;-58
2023/01/26 04:09:58;;;;;;;67.43;33.38;;;2.50;99.90;;;;;;5117543;28;20027;-58
2023/01/26 04:12:24;;;;;;;63.47;31.90;;;2.50;99.90;;;;;;5116261;28;20500;-58
2023/01/26 04:23:20;;;;;;;76.18;35.70;;;2.50;99.90;;;;;;5115946;28;20030;-58
2023/01/26 04:25:49;;;;;;;104.30;46.33;;;2.50;99.90;;;;;;5116040;28;20081;-58
2023/01/26 04:28:15;;;;;;;104.10;46.50;;;2.50;99.90;;;;;;5115812;28;20427;-58
2023/01/26 04:30:41;;;;;;;78.60;37.63;;;2.40;99.90;;;;;;5117114;28;20036;-58
2023/01/26 04:33:07;;;;;;;88.53;40.58;;;2.30;99.90;;;;;;5115928;28;20036;-58
2023/01/26 04:35:33;;;;;;;84.78;39.67;;;2.30;99.90;;;;;;5115746;28;20032;-58
2023/01/26 04:37:59;;;;;;;90.32;41.53;;;2.30;99.90;;;;;;5115621;28;20028;-58
2023/01/26 04:40:26;;;;;;;81.80;37.60;;;2.40;99.90;;;;;;5115666;28;20028;-58
2023/01/26 04:42:53;;;;;;;98.85;44.15;;;2.40;99.90;;;;;;5115439;28;20031;-58
2023/01/26 04:45:19;;;;;;;110.07;46.78;;;2.40;99.90;;;;;;5116740;28;20058;-58
2023/01/26 04:47:45;;;;;;;112.18;47.25;;;2.50;99.90;;;;;;5115637;28;20055;-58
2023/01/26 04:50:13;;;;;;;87.90;41.13;;;2.50;99.90;;;;;;5115547;28;20485;-58
2023/01/26 04:52:39;;;;;;;93.35;43.38;;;2.50;99.90;;;;;;5114597;28;20032;-58
2023/01/26 04:55:05;;;;;;;74.85;36.65;;;2.50;99.90;;;;;;5115291;28;20034;-58
2023/01/26 04:57:33;;;;;;;70.53;35.67;;;2.40;99.90;;;;;;5115218;28;20448;-58
2023/01/26 05:00:02;;;;;;;62.90;34.28;;;2.50;99.90;;;;;;5116414;28;20484;-58
2023/01/26 05:02:28;;;;;;;52.53;29.38;;;2.40;99.90;;;;;;5114887;28;20044;-58
2023/01/26 05:04:54;;;;;;;56.50;29.80;;;2.30;99.90;;;;;;5116712;28;20545;-58
2023/01/26 05:07:20;;;;;;;68.13;33.95;;;2.30;99.90;;;;;;5115073;28;20031;-58
2023/01/26 05:09:47;;;;;;;63.92;32.53;;;2.30;99.90;;;;;;5115128;28;20024;-58
2023/01/26 05:12:35;;;;;;;61.45;31.60;;;2.40;99.90;;;;;;5115046;28;20027;-58
2023/01/26 05:15:39;;;;;;;52.30;28.40;;;2.50;99.90;;;;;;5105864;28;20040;-58
2023/01/26 05:18:19;;;;;;;53.92;28.05;;;2.50;99.90;;;;;;5114818;28;20023;-58
2023/01/26 05:21:03;;;;;;;51.20;27.58;;;2.50;99.90;;;;;;5116117;28;20036;-58
2023/01/26 05:23:42;;;;;;;52.75;28.35;;;2.60;99.90;;;;;;5114733;28;20652;-58
2023/01/26 05:26:24;;;;;;;50.80;27.65;;;2.60;99.90;;;;;;5114780;28;20369;-58
2023/01/26 05:28:59;;;;;;;53.72;29.23;;;2.60;99.90;;;;;;5114620;28;20023;-58
2023/01/26 05:31:25;;;;;;;53.13;28.60;;;2.60;99.90;;;;;;5114702;28;20095;-58
2023/01/26 05:33:52;;;;;;;55.83;29.38;;;2.60;99.90;;;;;;5114552;28;20027;-58
2023/01/26 05:36:22;;;;;;;66.28;34.00;;;2.60;99.90;;;;;;5114455;28;20031;-58
2023/01/26 05:38:48;;;;;;;54.13;29.92;;;2.60;99.90;;;;;;5115944;28;20369;-58
2023/01/26 05:41:16;;;;;;;68.05;33.45;;;2.60;99.90;;;;;;5114291;28;20028;-58
2023/01/26 05:44:02;;;;;;;117.40;52.92;;;2.60;99.90;;;;;;5093869;27;20575;-58
2023/01/26 05:46:35;;;;;;;203.15;89.68;;;2.60;99.90;;;;;;5114448;28;20077;-58
2023/01/26 05:49:02;;;;;;;135.85;61.88;;;2.60;99.90;;;;;;5114306;28;20027;-58
2023/01/26 05:51:28;;;;;;;129.25;56.97;;;2.60;99.90;;;;;;5114358;28;20039;-58
2023/01/26 05:53:54;;;;;;;142.77;66.65;;;2.60;99.90;;;;;;5114066;28;20028;-58
2023/01/26 05:56:20;;;;;;;156.38;73.22;;;2.60;99.90;;;;;;5114334;28;20444;-58
2023/01/26 05:58:52;;;;;;;147.27;72.35;;;2.60;99.90;;;;;;5114198;28;20361;-58
2023/01/26 06:01:18;;;;;;;130.20;63.13;;;2.70;99.90;;;;;;5115087;28;20100;-58
2023/01/26 06:03:50;;;;;;;173.70;76.82;;;2.60;99.90;;;;;;5114148;28;20039;-58
2023/01/26 06:06:16;;;;;;;132.75;58.92;;;2.70;99.90;;;;;;5115279;28;20063;-58
2023/01/26 06:08:59;;;;;;;153.25;67.43;;;2.70;99.90;;;;;;5114039;28;20561;-58
2023/01/26 06:11:32;;;;;;;127.45;57.50;;;2.60;99.90;;;;;;5115323;27;20140;-58
2023/01/26 06:14:21;;;;;;;188.07;81.15;;;2.70;99.90;;;;;;5109343;28;20040;-58
2023/01/26 06:16:47;;;;;;;169.38;72.00;;;2.60;99.90;;;;;;5113620;28;20027;-58
2023/01/26 06:19:13;;;;;;;164.95;70.75;;;2.70;99.90;;;;;;5113896;28;20527;-58
2023/01/26 06:21:42;;;;;;;159.73;69.45;;;2.70;99.90;;;;;;5113702;28;20038;-58
2023/01/26 06:24:09;;;;;;;96.53;46.53;;;2.70;99.90;;;;;;5111786;28;20070;-58
2023/01/26 06:26:34;;;;;;;127.07;60.25;;;2.70;99.90;;;;;;5113126;28;20110;-58
2023/01/26 06:29:01;;;;;;;133.80;68.05;;;2.70;99.90;;;;;;5114208;28;20062;-58
2023/01/26 06:31:30;;;;;;;64.28;35.65;;;2.70;99.90;;;;;;5114146;28;20450;-58
2023/01/26 06:33:59;;;;;;;100.13;50.70;;;2.60;99.90;;;;;;5113465;28;20130;-58
2023/01/26 06:36:27;;;;;;;92.88;51.55;;;2.60;99.90;;;;;;5110532;28;20031;-58
2023/01/26 06:38:53;;;;;;;69.80;37.50;;;2.60;99.90;;;;;;5113325;28;20023;-58
2023/01/26 06:41:20;;;;;;;58.08;31.80;;;2.60;99.90;;;;;;5112214;28;20039;-58
2023/01/26 06:43:56;;;;;;;93.15;46.45;;;2.60;99.90;;;;;;5108841;28;20039;-58
2023/01/26 06:46:22;;;;;;;89.35;47.15;;;2.60;99.90;;;;;;5109707;28;20032;-58
2023/01/26 06:48:51;;;;;;;95.85;50.63;;;2.60;99.90;;;;;;5099705;28;20338;-58
2023/01/26 06:51:20;;;;;;;73.35;41.20;;;2.70;99.90;;;;;;5112496;28;20118;-58
2023/01/26 06:53:57;;;;;;;65.68;37.45;;;2.60;99.90;;;;;;5113125;28;20039;-58
2023/01/26 06:56:37;;;;;;;98.15;54.03;;;2.60;99.90;;;;;;5112285;28;20032;-58
2023/01/26 06:59:27;;;;;;;88.32;47.05;;;2.50;99.90;;;;;;5102054;28;20031;-58
2023/01/26 07:02:18;;;;;;;87.88;48.38;;;2.50;99.90;;;;;;5113174;28;20452;-58
2023/01/26 07:04:45;;;;;;;78.80;43.75;;;2.60;99.90;;;;;;5111657;28;20386;-58
2023/01/26 07:07:12;;;;;;;61.47;33.22;;;2.60;99.90;;;;;;5113687;28;20143;-58
2023/01/26 07:09:38;;;;;;;53.67;29.52;;;2.60;99.90;;;;;;5113797;28;20031;-58
2023/01/26 07:12:04;;;;;;;51.67;29.70;;;2.50;99.90;;;;;;5113632;28;20019;-58
2023/01/26 07:14:31;;;;;;;48.80;27.52;;;2.50;99.90;;;;;;5111964;28;20090;-58
2023/01/26 07:17:01;;;;;;;42.20;25.17;;;2.50;99.90;;;;;;5115410;28;20023;-57
2023/01/26 07:19:32;;;;;;;41.15;23.98;;;2.50;99.90;;;;;;5118331;28;20138;-58
2023/01/26 07:21:59;;;;;;;49.63;27.13;;;2.40;99.90;;;;;;5118335;28;20047;-58
2023/01/26 07:24:25;;;;;;;46.05;25.65;;;2.50;99.90;;;;;;5118145;27;20492;-58
2023/01/26 07:26:55;;;;;;;52.83;28.02;;;2.60;99.90;;;;;;5114595;28;20028;-58
2023/01/26 07:29:21;;;;;;;48.38;26.75;;;2.50;99.90;;;;;;5114837;28;20361;-58
2023/01/26 07:31:47;;;;;;;54.53;27.58;;;2.60;99.90;;;;;;5118205;28;20030;-58
2023/01/26 07:34:13;;;;;;;58.88;30.50;;;2.60;99.90;;;;;;5117313;28;20130;-58
2023/01/26 07:36:39;;;;;;;50.95;26.95;;;2.60;99.90;;;;;;5117688;28;20015;-58
2023/01/26 07:39:05;;;;;;;46.42;25.80;;;2.60;99.90;;;;;;5116806;28;20039;-58
2023/01/26 07:41:31;;;;;;;48.85;26.45;;;2.70;99.90;;;;;;5118320;28;20027;-58
2023/01/26 07:43:58;;;;;;;45.78;24.52;;;2.70;99.90;;;;;;5114962;28;20031;-58
2023/01/26 07:46:24;;;;;;;43.35;25.25;;;2.70;99.90;;;;;;5118472;28;20471;-58
2023/01/26 07:48:50;;;;;;;40.83;23.58;;;2.70;99.90;;;;;;5118374;28;20065;-58
2023/01/26 07:51:16;;;;;;;46.00;24.10;;;2.70;99.90;;;;;;5117520;28;20027;-59
2023/01/26 07:53:42;;;;;;;47.92;25.70;;;2.70;99.90;;;;;;5117132;28;20039;-59
2023/01/26 07:56:09;;;;;;;50.67;27.23;;;2.70;99.90;;;;;;5117248;28;20110;-58
2023/01/26 07:58:35;;;;;;;51.67;26.55;;;2.70;99.90;;;;;;5117695;28;20015;-58
2023/01/26 08:01:06;;;;;;;45.35;24.52;;;2.80;99.90;;;;;;5117190;28;20042;-58
2023/01/26 08:03:32;;;;;;;44.42;24.52;;;2.80;99.90;;;;;;5116905;28;20028;-58
2023/01/26 08:05:58;;;;;;;42.75;23.67;;;2.80;99.90;;;;;;5117778;28;20072;-58
2023/01/26 08:08:25;;;;;;;43.85;24.75;;;2.80;99.90;;;;;;5117992;28;20023;-58
2023/01/26 08:10:51;;;;;;;41.58;23.17;;;2.80;99.90;;;;;;5115803;28;20122;-58
2023/01/26 08:13:17;;;;;;;38.63;22.88;;;2.80;99.90;;;;;;5117486;28;20059;-58
2023/01/26 08:15:42;;;;;;;42.50;23.98;;;2.80;99.90;;;;;;5117895;28;20107;-58
2023/01/26 08:18:08;;;;;;;42.75;23.13;;;2.70;99.90;;;;;;5117842;28;20073;-58
2023/01/26 08:20:34;;;;;;;44.28;24.30;;;2.70;99.90;;;;;;5115761;28;20026;-58
2023/01/26 08:23:00;;;;;;;40.47;22.80;;;2.70;99.90;;;;;;5117269;28;20380;-58
2023/01/26 08:25:26;;;;;;;43.20;23.83;;;2.70;99.90;;;;;;5117654;28;20676;-58
2023/01/26 08:27:54;;;;;;;39.13;21.98;;;2.60;99.90;;;;;;5116614;28;20028;-58
2023/01/26 08:30:20;;;;;;;39.15;21.95;;;2.60;99.90;;;;;;5115337;28;20032;-58
2023/01/26 08:32:46;;;;;;;39.55;23.17;;;2.60;99.90;;;;;;5116920;28;20121;-58
2023/01/26 08:35:14;;;;;;;36.70;20.90;;;2.60;99.90;;;;;;5113887;28;20069;-58
2023/01/26 08:37:40;;;;;;;36.25;20.15;;;2.70;99.90;;;;;;5115935;28;20043;-58
2023/01/26 08:40:07;;;;;;;35.85;19.08;;;2.70;99.90;;;;;;5113157;28;20430;-58
2023/01/26 08:42:33;;;;;;;32.05;18.52;;;2.70;99.90;;;;;;5116510;28;20019;-58
2023/01/26 08:44:59;;;;;;;34.85;19.60;;;2.70;99.90;;;;;;5113135;28;20043;-57
2023/01/26 08:47:25;;;;;;;33.70;18.73;;;2.80;99.90;;;;;;5116029;28;20057;-58
2023/01/26 08:49:51;;;;;;;32.35;18.90;;;2.80;99.90;;;;;;5116224;28;20114;-58
2023/01/26 08:52:17;;;;;;;34.38;18.63;;;2.80;99.90;;;;;;5113781;28;20031;-57
2023/01/26 08:54:43;;;;;;;53.08;25.70;;;2.80;99.90;;;;;;5116052;28;20039;-58
2023/01/26 08:57:09;;;;;;;49.58;24.58;;;2.80;99.90;;;;;;5116308;28;20024;-58
2023/01/26 08:59:35;;;;;;;39.03;21.25;;;2.80;99.90;;;;;;5116331;28;20050;-58
2023/01/26 09:02:01;;;;;;;52.20;26.80;;;2.80;99.90;;;;;;5111966;28;20040;-58
2023/01/26 09:04:27;;;;;;;54.10;29.17;;;2.80;99.90;;;;;;5115689;28;20046;-58
2023/01/26 09:06:53;;;;;;;58.97;31.55;;;2.90;99.90;;;;;;5115452;28;20515;-58
2023/01/26 09:09:19;;;;;;;49.03;26.23;;;2.90;99.90;;;;;;5113561;28;20077;-58
2023/01/26 09:11:45;;;;;;;56.15;32.90;;;2.90;99.90;;;;;;5114774;28;20423;-58
2023/01/26 09:14:11;;;;;;;37.40;20.60;;;2.90;99.90;;;;;;5115855;28;20479;-58
2023/01/26 09:16:37;;;;;;;33.78;20.08;;;2.90;99.90;;;;;;5114170;28;20039;-58
2023/01/26 09:19:04;;;;;;;37.17;22.58;;;2.90;99.90;;;;;;5114181;28;20122;-58
2023/01/26 09:21:29;;;;;;;39.22;22.90;;;2.90;99.90;;;;;;5116003;28;20503;-58
2023/01/26 09:23:56;;;;;;;38.80;21.40;;;2.90;99.90;;;;;;5116625;28;20027;-58
2023/01/26 09:26:22;;;;;;;36.40;21.63;;;2.80;99.90;;;;;;5116476;27;20361;-58
2023/01/26 09:28:51;;;;;;;40.47;24.77;;;2.90;99.90;;;;;;5116393;28;20711;-58
2023/01/26 09:31:17;;;;;;;47.20;26.40;;;2.90;99.90;;;;;;5115811;28;20453;-58
2023/01/26 09:33:43;;;;;;;34.22;19.52;;;2.90;99.90;;;;;;5115259;28;20031;-58
2023/01/26 09:36:11;;;;;;;55.92;31.27;;;2.90;99.90;;;;;;5113625;28;20024;-57
2023/01/26 09:38:37;;;;;;;46.55;27.45;;;3.00;99.90;;;;;;5111273;28;20022;-58
2023/01/26 09:41:09;;;;;;;44.95;26.02;;;3.00;99.90;;;;;;5115117;28;20055;-58
2023/01/26 09:43:49;;;;;;;44.10;24.35;;;3.10;99.90;;;;;;5115472;28;20027;-57
2023/01/26 09:46:40;;;;;;;47.50;25.57;;;3.20;99.90;;;;;;5115201;28;20449;-57
2023/01/26 09:49:25;;;;;;;49.47;25.05;;;3.20;99.90;;;;;;5115304;28;20260;-58
2023/01/26 09:52:05;;;;;;;49.75;26.65;;;3.20;99.90;;;;;;5115447;28;20055;-58
2023/01/26 09:54:48;;;;;;;35.38;20.92;;;3.20;99.90;;;;;;5112993;28;20039;-58
2023/01/26 09:57:19;;;;;;;49.03;28.48;;;3.00;99.90;;;;;;5113980;28;20031;-58
2023/01/26 09:59:50;;;;;;;45.42;25.88;;;3.10;99.90;;;;;;5115101;27;20469;-58
2023/01/26 10:02:38;;;;;;;43.97;25.90;;;3.20;99.90;;;;;;5114900;28;20101;-58
2023/01/26 10:05:18;;;;;;;41.75;23.38;;;3.20;99.90;;;;;;5115201;28;20091;-58
2023/01/26 10:07:44;;;;;;;41.13;24.00;;;3.20;99.90;;;;;;5115182;28;20028;-58
2023/01/26 10:10:29;;;;;;;50.15;27.10;;;3.30;99.90;;;;;;5115200;28;20091;-58
2023/01/26 10:12:56;;;;;;;42.38;25.55;;;3.30;99.90;;;;;;5115053;28;20381;-58
2023/01/26 10:15:38;;;;;;;40.47;22.17;;;3.20;99.90;;;;;;5114637;28;20035;-58
2023/01/26 10:18:22;;;;;;;40.13;21.85;;;3.20;99.90;;;;;;5115022;28;20081;-58
2023/01/26 10:20:52;;;;;;;45.58;26.90;;;3.20;99.90;;;;;;5114729;28;20366;-58
2023/01/26 10:23:28;;;;;;;54.15;32.17;;;3.20;99.90;;;;;;5114922;28;20623;-58
2023/01/26 10:26:16;;;;;;;41.65;25.20;;;3.30;99.90;;;;;;5114527;28;20039;-58
2023/01/26 10:28:44;;;;;;;34.03;19.98;;;3.40;99.90;;;;;;5114699;28;20030;-58
2023/01/26 10:31:20;;;;;;;34.10;19.52;;;3.30;99.90;;;;;;5114461;28;20016;-58
2023/01/26 10:34:02;;;;;;;37.42;21.30;;;3.30;99.90;;;;;;5114380;28;20040;-58
2023/01/26 10:36:31;;;;;;;32.67;19.00;;;3.30;99.90;;;;;;5111294;28;20027;-58
2023/01/26 10:39:05;;;;;;;33.28;18.33;;;3.30;99.90;;;;;;5102682;28;20355;-58
2023/01/26 10:41:32;;;;;;;49.88;24.58;;;3.10;99.90;;;;;;5102383;28;20030;-58
2023/01/26 10:44:01;;;;;;;45.38;21.35;;;3.20;99.90;;;;;;5114650;28;20384;-58
2023/01/26 10:46:29;;;;;;;44.20;22.65;;;3.20;99.90;;;;;;5114400;28;20027;-58
2023/01/26 10:48:58;;;;;;;43.97;21.80;;;3.20;99.90;;;;;;5114672;28;20090;-58
2023/01/26 10:51:28;;;;;;;34.80;17.90;;;3.30;99.90;;;;;;5118029;28;20035;-58
2023/01/26 10:54:12;;;;;;;34.17;18.38;;;3.10;99.90;;;;;;5118628;28;20042;-58
2023/01/26 10:57:14;;;;;;;43.00;21.42;;;3.10;99.90;;;;;;5112191;28;20059;-58
2023/01/26 10:59:49;;;;;;;51.60;25.90;;;3.20;99.90;;;;;;5081101;28;20089;-59
2023/01/26 11:02:15;;;;;;;39.92;20.75;;;3.30;99.90;;;;;;5107444;28;20047;-58
2023/01/26 11:05:00;;;;;;;31.67;17.27;;;3.30;99.90;;;;;;5107276;28;20035;-59
2023/01/26 11:07:33;;;;;;;38.80;19.70;;;3.30;99.90;;;;;;5119191;28;20030;-59
2023/01/26 11:10:23;;;;;;;41.90;21.90;;;3.30;99.90;;;;;;5114245;28;20469;-59
2023/01/26 11:13:12;;;;;;;40.40;21.08;;;3.40;99.90;;;;;;5114955;28;20024;-59
2023/01/26 11:15:40;;;;;;;40.50;20.52;;;3.50;99.90;;;;;;5118280;28;20496;-59
2023/01/26 11:18:54;;;;;;;33.53;17.48;;;3.50;99.90;;;;;;5106887;28;20036;-58
2023/01/26 11:22:03;;;;;;;42.55;19.83;;;3.50;99.90;;;;;;5074289;28;20452;-59
2023/01/26 11:24:41;;;;;;;52.47;20.42;;;3.50;99.90;;;;;;5074758;28;20040;-58
2023/01/26 11:27:26;;;;;;;48.38;20.98;;;3.20;99.90;;;;;;5073043;28;20037;-58
2023/01/26 11:30:06;;;;;;;34.25;17.98;;;3.40;99.90;;;;;;5068013;28;20075;-58
2023/01/26 11:32:41;;;;;;;45.85;23.05;;;3.40;99.90;;;;;;5071847;28;20127;-58
2023/01/26 11:35:23;;;;;;;44.47;22.00;;;3.40;99.90;;;;;;5063803;28;20033;-58
2023/01/26 11:37:55;;;;;;;51.35;20.90;;;3.40;99.90;;;;;;5067910;28;20047;-58
2023/01/26 11:40:36;;;;;;;42.67;21.23;;;3.40;99.90;;;;;;5074858;28;20032;-58
2023/01/26 11:43:12;;;;;;;47.97;23.30;;;3.40;99.90;;;;;;5074079;28;20402;-58
2023/01/26 11:45:56;;;;;;;49.65;23.05;;;3.50;99.90;;;;;;5073852;28;20050;-59
2023/01/26 11:48:54;;;;;;;35.92;19.35;;;3.50;99.90;;;;;;5061511;28;20024;-58
2023/01/26 11:51:34;;;;;;;51.58;24.58;;;3.50;99.90;;;;;;5066988;28;20036;-58
2023/01/26 11:54:02;;;;;;;42.63;22.30;;;3.40;99.90;;;;;;5074331;28;20449;-59
2023/01/26 11:56:53;;;;;;;51.30;25.70;;;3.40;99.90;;;;;;5074238;28;20044;-59
2023/01/26 11:59:22;;;;;;;;;;;3.40;99.90;;;;;;5084527;28;20039;-59
2023/01/26 12:02:03;;;;;;;65.90;31.50;;;3.50;99.90;;;;;;5116905;28;19926;-58
2023/01/26 12:04:34;;;;;;;37.70;20.73;;;3.40;99.90;;;;;;5117326;28;20059;-58
2023/01/26 12:07:10;;;;;;;51.97;24.63;;;3.30;99.90;;;;;;5117434;28;20110;-58
2023/01/26 12:09:42;;;;;;;38.38;18.88;;;3.20;99.90;;;;;;5096960;28;20481;-58
2023/01/26 12:12:30;;;;;;;39.38;19.48;;;3.00;99.90;;;;;;5098027;28;20385;-58
2023/01/26 12:15:12;;;;;;;40.03;20.77;;;3.00;99.90;;;;;;5110974;28;20050;-58
2023/01/26 12:17:58;;;;;;;35.83;19.13;;;2.90;99.90;;;;;;5116976;28;20031;-58
2023/01/26 12:20:36;;;;;;;39.88;20.48;;;2.80;99.90;;;;;;5116921;28;20023;-58
2023/01/26 12:23:26;;;;;;;40.33;21.10;;;2.90;99.90;;;;;;5116253;28;20030;-58
2023/01/26 12:25:57;;;;;;;42.53;23.00;;;2.90;99.90;;;;;;5103246;28;20081;-58
2023/01/26 12:28:42;;;;;;;42.40;21.45;;;2.80;99.90;;;;;;5117025;28;20534;-58
2023/01/26 12:31:11;;;;;;;36.08;19.50;;;2.80;99.90;;;;;;5116832;28;20530;-58
2023/01/26 12:33:38;;;;;;;40.75;21.90;;;2.80;99.90;;;;;;5116973;28;20080;-58
2023/01/26 12:36:26;;;;;;;35.00;20.40;;;2.80;99.90;;;;;;5114229;27;20051;-58
2023/01/26 12:38:58;;;;;;;45.88;23.50;;;2.80;99.90;;;;;;5116688;27;20063;-58
2023/01/26 12:41:45;;;;;;;44.00;21.85;;;2.80;99.90;;;;;;5116271;27;20030;-59
2023/01/26 12:44:32;;;;;;;44.35;23.05;;;2.70;99.90;;;;;;5111218;28;20111;-58
2023/01/26 12:47:11;;;;;;;47.13;24.35;;;2.70;99.90;;;;;;5109095;28;20110;-58
2023/01/26 12:49:56;;;;;;;64.13;30.15;;;2.80;99.90;;;;;;5116856;28;20149;-58
2023/01/26 12:52:41;;;;;;;34.30;19.38;;;2.80;99.90;;;;;;5116687;28;20145;-58
2023/01/26 12:55:25;;;;;;;37.45;20.85;;;2.80;99.90;;;;;;5116770;28;20023;-58
2023/01/26 12:57:58;;;;;;;36.03;19.50;;;2.70;99.90;;;;;;5116416;28;20032;-58
2023/01/26 13:00:29;;;;;;;38.20;22.05;;;2.70;99.90;;;;;;5111835;28;20023;-58
2023/01/26 13:03:20;;;;;;;34.97;20.40;;;2.70;99.90;;;;;;5115794;28;20354;-58
2023/01/26 13:05:56;;;;;;;29.48;18.13;;;2.60;99.90;;;;;;5116309;28;20027;-58
2023/01/26 13:08:31;;;;;;;34.05;20.52;;;2.60;99.90;;;;;;5116158;28;20544;-59
2023/01/26 13:11:08;;;;;;;34.15;20.05;;;2.60;99.90;;;;;;5116392;27;20101;-58
2023/01/26 13:13:59;;;;;;;32.22;18.83;;;2.70;99.90;;;;;;5115091;28;20062;-58
2023/01/26 13:16:25;;;;;;;35.75;20.52;;;2.60;99.90;;;;;;5116117;27;20186;-58
2023/01/26 13:18:59;;;;;;;35.03;20.35;;;2.60;99.90;;;;;;5115859;28;20051;-58
2023/01/26 13:21:37;;;;;;;36.60;20.65;;;2.60;99.90;;;;;;5115691;28;20031;-58
2023/01/26 13:24:23;;;;;;;37.47;21.23;;;2.60;99.90;;;;;;5113208;28;20118;-58
2023/01/26 13:26:55;;;;;;;31.92;18.40;;;2.50;99.90;;;;;;5068148;28;20051;-58
2023/01/26 13:29:24;;;;;;;31.70;17.80;;;2.60;99.90;;;;;;5105200;28;20123;-58
2023/01/26 13:31:51;;;;;;;34.92;18.77;;;2.50;99.90;;;;;;5115637;28;20027;-59
2023/01/26 13:34:36;;;;;;;31.95;19.23;;;2.40;99.90;;;;;;5115630;28;20031;-58
2023/01/26 13:37:33;;;;;;;39.70;21.45;;;2.40;99.90;;;;;;5115507;28;20488;-58
2023/01/26 13:40:05;;;;;;;35.35;20.15;;;2.40;99.90;;;;;;5107342;28;20435;-58
2023/01/26 13:42:37;;;;;;;31.80;18.63;;;2.40;99.90;;;;;;5110536;28;20374;-58
2023/01/26 13:45:16;;;;;;;37.15;19.88;;;2.40;99.90;;;;;;5106875;28;20036;-59
2023/01/26 13:47:46;;;;;;;33.65;18.90;;;2.50;99.90;;;;;;5116212;28;20032;-58
2023/01/26 13:50:27;;;;;;;41.58;22.27;;;2.40;99.90;;;;;;5112563;28;20131;-58